Wyandot, Ohio
Current Conditions -  °F | °C
As of 7:53 AM on Sunday 23 Nov 2014 (Local Time) from KMNN Reporting Station
Overcast Overcast  
Wind Chill: 41°   Ceiling: 3400
Heat Index: 46°   Visibility: 10mi
Dew Point: 38°   Wind: 9mph
Humidity: 73%   Direction: 180°S
Pressure: 29.99"   Gusts: NA
Location:  40.8054°N, 83.1316°W
Report Text: KMNN 231253Z AUTO 18008KT 10SM BKN034 BKN041 OVC065 08/03 A2999 RMK AO2 SLP161 T00780033 TSNO
Loading
Personal Weather Stations






























Interactive Weather Map New forecast layout! Learn more

10-Day Weather Forecast

Advertisements
Track Severe Weather on mobile